.
WxDataArchive / Data Records for 2007-09-14
2007-09-13 September 2007 2007-09-15

Data Records for Friday, 14 September 2007

Time	Temp	Chill	HIndex	Humid	Dewpt	 Wind 	HiWind	WindDir	Rain 	Barom 
-----	----	-----	------	-----	-----	------	------	-------	-----	----- 
00:00	53.3	53.3	53.3	91	50.7	0	0	---	0.00	29.898 
00:05	53.3	53.3	53.3	91	50.7	0	0	---	0.00	29.899 
00:10	53.2	53.2	53.2	92	50.9	0	0	---	0.00	29.898 
00:15	53.1	53.1	53.1	92	50.8	0	0	---	0.00	29.896 
00:20	53.1	53.1	53.1	92	50.8	0	0	---	0.00	29.896 
00:25	52.9	52.9	52.9	92	50.6	0	0	---	0.00	29.895 
00:30	52.8	52.8	52.8	92	50.5	0	0	---	0.00	29.894 
00:35	52.6	52.6	52.6	92	50.3	0	0	---	0.00	29.892 
00:40	52.5	52.5	52.5	92	50.2	0	0	---	0.00	29.891 
00:45	52.5	52.5	52.5	92	50.2	0	0	---	0.00	29.890 
00:50	52.5	52.5	52.5	92	50.2	0	0	---	0.00	29.890 
00:55	52.5	52.5	52.5	93	50.5	0	0	---	0.00	29.889 
01:00	52.5	52.5	52.5	93	50.5	0	0	---	0.00	29.886 
01:05	52.3	52.3	52.3	93	50.3	0	0	---	0.00	29.885 
01:10	52.3	52.3	52.3	93	50.3	0	0	---	0.00	29.884 
01:15	52.2	52.2	52.2	93	50.2	0	0	---	0.00	29.882 
01:20	52.0	52.0	52.0	93	50.0	0	0	---	0.00	29.881 
01:25	52.0	52.0	52.0	93	50.0	0	0	---	0.00	29.881 
01:30	51.9	51.9	51.9	93	49.9	0	0	---	0.00	29.880 
01:35	51.9	51.9	51.9	93	49.9	0	0	---	0.00	29.878 
01:40	51.9	51.9	51.9	93	49.9	0	0	---	0.00	29.878 
01:45	52.0	52.0	52.0	93	50.0	0	0	---	0.00	29.878 
01:50	52.0	52.0	52.0	93	50.0	0	0	---	0.00	29.878 
01:55	52.2	52.2	52.2	93	50.2	0	0	---	0.00	29.877 
02:00	52.3	52.3	52.3	93	50.3	0	0	---	0.00	29.876 
02:05	52.2	52.2	52.2	92	49.9	0	0	---	0.00	29.874 
02:10	52.2	52.2	52.2	92	49.9	0	0	---	0.00	29.871 
02:15	52.2	52.2	52.2	92	49.9	0	0	---	0.00	29.868 
02:20	52.2	52.2	52.2	92	49.9	0	0	---	0.00	29.866 
02:25	52.2	52.2	52.2	92	49.9	0	0	---	0.00	29.864 
02:30	52.3	52.3	52.3	92	50.0	0	0	---	0.00	29.863 
02:35	52.5	52.5	52.5	91	49.9	0	0	---	0.00	29.863 
02:40	52.5	52.5	52.5	91	49.9	0	0	---	0.00	29.862 
02:45	52.6	52.6	52.6	90	49.7	0	0	---	0.00	29.861 
02:50	52.6	52.6	52.6	90	49.7	0	0	---	0.00	29.860 
02:55	52.6	52.6	52.6	89	49.4	0	0	---	0.00	29.858 
03:00	52.6	52.6	52.6	89	49.4	0	0	---	0.00	29.856 
03:05	52.6	52.6	52.6	88	49.1	0	0	---	0.00	29.853 
03:10	52.8	52.8	52.8	88	49.3	0	0	---	0.00	29.853 
03:15	52.8	52.8	52.8	88	49.3	0	0	---	0.00	29.852 
03:20	52.6	52.6	52.6	87	48.8	0	0	---	0.00	29.850 
03:25	52.8	52.8	52.8	86	48.7	0	0	---	0.00	29.849 
03:30	53.2	53.2	53.2	84	48.5	0	1	270	0.00	29.849 
03:35	53.8	53.8	53.8	82	48.4	0	1	270	0.00	29.847 
03:40	54.5	54.5	54.5	79	48.1	0	0	---	0.00	29.846 
03:45	55.0	55.0	55.0	77	47.9	0	0	---	0.00	29.844 
03:50	55.3	55.3	55.3	77	48.2	0	1	270	0.00	29.844 
03:55	55.9	55.9	55.9	74	47.7	0	2	270	0.00	29.843 
04:00	56.5	56.5	56.5	72	47.6	0	1	270	0.00	29.843 
04:05	56.7	56.7	56.7	71	47.4	0	1	270	0.00	29.843 
04:10	57.0	57.0	57.0	70	47.3	0	1	270	0.00	29.843 
04:15	57.0	57.0	57.0	70	47.3	0	2	270	0.00	29.841 
04:20	57.0	57.0	57.0	69	46.9	0	1	270	0.00	29.841 
04:25	57.2	57.2	57.2	69	47.1	0	2	270	0.00	29.840 
04:30	57.5	57.5	57.5	68	47.0	0	2	248	0.00	29.837 
04:35	57.8	57.8	57.8	68	47.3	0	1	248	0.00	29.837 
04:40	58.1	58.1	58.1	67	47.2	0	2	248	0.00	29.835 
04:45	58.1	58.1	58.1	67	47.2	0	1	248	0.00	29.834 
04:50	58.1	58.1	58.1	66	46.8	0	2	248	0.00	29.832 
04:55	58.3	58.3	58.3	66	47.0	0	2	248	0.00	29.832 
05:00	58.3	58.3	58.3	65	46.6	0	2	248	0.00	29.833 
05:05	58.4	58.4	58.4	65	46.7	1	4	248	0.00	29.833 
05:10	58.6	58.6	58.6	65	46.9	1	4	248	0.00	29.835 
05:15	58.7	58.7	58.7	64	46.6	0	2	248	0.00	29.834 
05:20	58.7	58.7	58.7	64	46.6	0	3	248	0.00	29.832 
05:25	58.9	58.9	58.9	64	46.7	1	3	248	0.00	29.831 
05:30	58.9	58.9	58.9	64	46.7	0	2	248	0.00	29.829 
05:35	58.9	58.9	58.9	64	46.7	0	2	248	0.00	29.829 
05:40	58.9	58.9	58.9	64	46.7	0	3	292	0.00	29.830 
05:45	58.9	58.9	58.9	65	47.2	0	2	270	0.00	29.830 
05:50	58.9	58.9	58.9	64	46.7	0	3	270	0.00	29.830 
05:55	58.9	58.9	58.9	64	46.7	0	2	248	0.00	29.829 
06:00	58.7	58.7	58.7	65	47.0	0	3	248	0.00	29.829 
06:05	58.7	58.7	58.7	65	47.0	0	2	248	0.00	29.834 
06:10	58.9	58.9	58.9	65	47.2	0	3	248	0.00	29.834 
06:15	58.9	58.9	58.9	64	46.7	0	2	248	0.00	29.834 
06:20	58.9	58.9	58.9	65	47.2	0	3	248	0.00	29.835 
06:25	58.9	58.9	58.9	65	47.2	1	2	225	0.00	29.835 
06:30	58.9	58.9	58.9	65	47.2	0	2	248	0.00	29.834 
06:35	58.9	58.9	58.9	65	47.2	0	3	248	0.00	29.834 
06:40	58.9	58.9	58.9	66	47.6	0	2	248	0.00	29.833 
06:45	58.9	58.9	58.9	66	47.6	0	2	248	0.00	29.833 
06:50	58.9	58.9	58.9	66	47.6	1	3	248	0.00	29.833 
06:55	59.0	59.0	59.0	66	47.7	1	2	248	0.00	29.833 
07:00	59.0	59.0	59.0	67	48.1	0	2	248	0.00	29.831 
07:05	59.3	59.3	59.3	67	48.3	1	4	270	0.00	29.836 
07:10	59.6	59.6	59.6	66	48.2	1	3	248	0.00	29.833 
07:15	59.9	59.9	59.9	65	48.1	1	3	248	0.00	29.834 
07:20	60.4	60.4	60.4	65	48.6	1	4	248	0.00	29.833 
07:25	60.9	60.9	60.9	65	49.1	1	3	270	0.00	29.832 
07:30	61.3	61.3	61.3	65	49.4	1	3	248	0.00	29.829 
07:35	61.6	61.6	61.6	65	49.7	1	3	248	0.00	29.828 
07:40	62.0	62.0	62.0	64	49.7	1	3	248	0.00	29.832 
07:45	62.4	62.4	62.4	64	50.1	1	3	248	0.00	29.831 
07:50	62.9	62.9	62.9	64	50.5	1	3	270	0.00	29.832 
07:55	63.4	63.4	63.4	64	51.0	1	3	248	0.00	29.833 
08:00	64.0	64.0	64.0	62	50.7	1	4	248	0.00	29.832 
08:05	64.3	64.3	64.3	63	51.4	1	3	248	0.00	29.835 
08:10	64.5	64.5	64.5	61	50.7	2	4	248	0.00	29.836 
08:15	64.8	64.8	64.8	62	51.5	1	5	248	0.00	29.836 
08:20	65.0	65.0	65.0	62	51.7	1	4	248	0.00	29.837 
08:25	65.2	65.2	65.2	62	51.8	1	4	270	0.00	29.837 
08:30	65.5	65.5	65.5	62	52.1	1	3	248	0.00	29.836 
08:35	65.8	65.8	65.8	62	52.4	1	4	248	0.00	29.835 
08:40	66.1	66.1	66.1	62	52.7	1	3	248	0.00	29.834 
08:45	66.4	66.4	66.4	62	53.0	2	4	248	0.00	29.833 
08:50	66.6	66.6	66.6	61	52.7	2	5	248	0.00	29.835 
08:55	66.9	66.9	66.9	62	53.4	2	4	270	0.00	29.834 
09:00	67.3	67.3	67.3	61	53.4	2	4	270	0.00	29.836 
09:05	67.4	67.4	67.4	60	53.0	2	5	270	0.00	29.837 
09:10	67.6	67.6	67.6	61	53.7	2	4	248	0.00	29.835 
09:15	67.9	67.9	67.9	62	54.4	1	3	248	0.00	29.833 
09:20	68.1	68.1	68.1	61	54.1	2	4	270	0.00	29.833 
09:25	68.3	68.3	68.3	61	54.3	2	4	248	0.00	29.834 
09:30	68.4	68.4	68.4	62	54.9	2	4	270	0.00	29.837 
09:35	68.6	68.6	68.6	62	55.0	2	5	270	0.00	29.842 
09:40	68.9	68.9	68.9	62	55.3	2	4	270	0.00	29.845 
09:45	69.1	69.1	69.1	62	55.5	2	4	292	0.00	29.839 
09:50	69.4	69.4	69.4	60	54.9	1	4	315	0.00	29.840 
09:55	69.6	69.6	69.6	60	55.1	2	4	270	0.00	29.843 
10:00	69.4	69.4	69.4	61	55.4	2	4	270	0.00	29.846 
10:05	69.6	69.6	69.6	61	55.5	2	3	292	0.00	29.846 
10:10	69.9	69.9	69.9	60	55.4	2	4	248	0.00	29.847 
10:15	69.6	69.6	69.6	60	55.1	2	4	292	0.00	29.850 
10:20	69.6	69.6	69.6	62	56.0	2	3	292	0.00	29.849 
10:25	69.9	69.9	69.9	62	56.3	2	5	248	0.00	29.847 
10:30	70.1	70.1	70.1	62	56.5	2	5	270	0.00	29.849 
10:35	70.1	70.1	70.1	62	56.5	2	5	270	0.00	29.850 
10:40	70.6	70.6	70.6	63	57.4	2	4	248	0.00	29.849 
10:45	70.4	70.4	70.4	62	56.7	2	5	248	0.00	29.849 
10:50	70.6	70.6	70.6	63	57.4	3	9	270	0.00	29.848 
10:55	70.8	70.8	70.8	62	57.1	2	4	270	0.00	29.848 
11:00	70.8	70.8	70.8	63	57.6	2	4	292	0.00	29.846 
11:05	70.3	70.3	70.3	65	58.0	2	5	292	0.00	29.852 
11:10	70.4	70.4	70.4	66	58.5	2	4	315	0.00	29.852 
11:15	69.9	69.9	69.9	66	58.0	1	4	292	0.00	29.857 
11:20	69.3	69.3	69.3	68	58.3	1	3	292	0.00	29.858 
11:25	68.6	68.6	68.6	69	58.0	1	4	292	0.00	29.865 
11:30	67.6	67.6	67.6	70	57.5	1	3	315	0.00	29.868 
11:35	67.3	67.3	67.3	71	57.6	2	4	292	0.00	29.868 
11:40	67.3	67.3	67.3	71	57.6	1	6	292	0.00	29.870 
11:45	66.8	66.8	66.8	73	57.9	2	4	315	0.00	29.874 
11:50	66.6	66.6	66.6	74	58.0	1	4	270	0.00	29.872 
11:55	66.6	66.6	66.6	73	57.7	1	4	292	0.00	29.871 
12:00	66.4	66.4	66.4	72	57.1	1	3	315	0.00	29.876 
12:05	66.0	66.0	66.0	74	57.5	1	3	315	0.00	29.881 
12:10	65.5	65.5	65.5	74	57.0	1	3	292	0.00	29.884 
12:15	64.5	64.5	64.5	76	56.8	1	4	315	0.00	29.885 
12:20	64.2	64.2	64.2	77	56.8	1	3	270	0.00	29.887 
12:25	64.0	64.0	64.0	76	56.3	1	2	270	0.00	29.886 
12:30	63.9	63.9	63.9	76	56.2	1	2	315	0.00	29.887 
12:35	63.7	63.7	63.7	77	56.3	1	2	315	0.00	29.890 
12:40	63.9	63.9	63.9	75	55.8	1	4	315	0.00	29.897 
12:45	63.7	63.7	63.7	73	54.9	2	5	292	0.00	29.894 
12:50	63.7	63.7	63.7	70	53.7	1	5	315	0.00	29.896 
12:55	63.9	63.9	63.9	69	53.5	2	5	315	0.00	29.898 
13:00	63.9	63.9	63.9	71	54.3	2	5	315	0.00	29.898 
13:05	63.9	63.9	63.9	71	54.3	1	3	315	0.00	29.901 
13:10	63.7	63.7	63.7	70	53.7	1	4	270	0.00	29.902 
13:15	63.5	63.5	63.5	70	53.5	1	4	315	0.00	29.899 
13:20	63.7	63.7	63.7	70	53.7	1	2	315	0.00	29.898 
13:25	64.2	64.2	64.2	68	53.4	1	3	315	0.00	29.892 
13:30	64.2	64.2	64.2	66	52.6	1	6	315	0.00	29.897 
13:35	64.2	64.2	64.2	65	52.2	2	4	315	0.00	29.900 
13:40	64.0	64.0	64.0	66	52.4	1	3	270	0.00	29.897 
13:45	64.5	64.5	64.5	65	52.5	1	3	315	0.00	29.895 
13:50	64.8	64.8	64.8	64	52.3	2	4	292	0.00	29.900 
13:55	64.8	64.8	64.8	66	53.2	1	5	315	0.00	29.901 
14:00	65.2	65.2	65.2	61	51.4	2	5	315	0.00	29.901 
14:05	65.0	65.0	65.0	62	51.7	2	5	315	0.00	29.901 
14:10	65.3	65.3	65.3	59	50.6	2	4	315	0.00	29.900 
14:15	65.8	65.8	65.8	58	50.6	3	6	270	0.00	29.896 
14:20	66.0	66.0	66.0	56	49.8	3	6	292	0.00	29.893 
14:25	65.6	65.6	65.6	57	49.9	2	4	315	0.00	29.889 
14:30	66.1	66.1	66.1	56	49.9	1	4	338	0.00	29.888 
14:35	66.6	66.6	66.6	54	49.4	2	4	270	0.00	29.885 
14:40	67.1	67.1	67.1	53	49.4	2	4	270	0.00	29.885 
14:45	67.4	67.4	67.4	54	50.2	2	4	315	0.00	29.885 
14:50	67.8	67.8	67.8	52	49.5	2	6	248	0.00	29.888 
14:55	67.6	67.6	67.6	50	48.3	2	4	315	0.00	29.887 
15:00	67.8	67.8	67.8	51	49.0	1	5	315	0.00	29.888 
15:05	67.8	67.8	67.8	48	47.4	3	9	315	0.00	29.884 
15:10	67.4	67.4	67.4	50	48.1	1	4	315	0.00	29.885 
15:15	67.6	67.6	67.6	50	48.3	2	5	292	0.00	29.887 
15:20	67.8	67.8	67.8	47	46.8	2	4	292	0.00	29.891 
15:25	67.6	67.6	67.6	47	46.6	2	5	270	0.00	29.890 
15:30	67.6	67.6	67.6	46	46.1	2	5	315	0.00	29.891 
15:35	67.6	67.6	67.6	47	46.6	2	6	292	0.00	29.895 
15:40	67.3	67.3	67.3	45	45.2	2	4	315	0.00	29.893 
15:45	67.4	67.4	67.4	47	46.5	2	5	270	0.00	29.898 
15:50	67.3	67.3	67.3	47	46.4	2	5	270	0.00	29.897 
15:55	66.8	66.8	66.8	46	45.3	2	4	292	0.00	29.898 
16:00	66.4	66.4	66.4	46	45.0	2	5	292	0.00	29.901 
16:05	66.4	66.4	66.4	45	44.4	1	5	338	0.00	29.903 
16:10	66.3	66.3	66.3	46	44.9	2	4	315	0.00	29.904 
16:15	66.0	66.0	66.0	46	44.6	2	4	292	0.00	29.908 
16:20	66.0	66.0	66.0	45	44.0	2	6	338	0.00	29.912 
16:25	66.0	66.0	66.0	46	44.6	2	4	270	0.00	29.913 
16:30	65.6	65.6	65.6	47	44.8	2	5	315	0.00	29.915 
16:35	65.2	65.2	65.2	46	43.9	2	4	315	0.00	29.918 
16:40	65.0	65.0	65.0	48	44.8	2	5	292	0.00	29.920 
16:45	64.7	64.7	64.7	49	45.1	2	5	292	0.00	29.928 
16:50	64.5	64.5	64.5	50	45.4	1	6	292	0.00	29.931 
16:55	64.2	64.2	64.2	49	44.6	2	9	292	0.00	29.932 
17:00	64.0	64.0	64.0	49	44.5	2	6	292	0.00	29.933 
17:05	63.9	63.9	63.9	48	43.8	2	5	292	0.00	29.938 
17:10	63.4	63.4	63.4	49	43.9	1	6	315	0.00	29.935 
17:15	63.1	63.1	63.1	49	43.6	2	9	315	0.00	29.941 
17:20	62.9	62.9	62.9	50	44.0	1	3	315	0.00	29.944 
17:25	62.4	62.4	62.4	49	43.0	1	3	292	0.00	29.944 
17:30	62.1	62.1	62.1	50	43.2	2	6	292	0.00	29.948 
17:35	61.6	61.6	61.6	49	42.3	2	5	315	0.00	29.949 
17:40	61.3	61.3	61.3	50	42.5	2	6	315	0.00	29.949 
17:45	61.0	61.0	61.0	50	42.2	1	4	292	0.00	29.949 
17:50	60.9	60.9	60.9	51	42.6	1	3	315	0.00	29.949 
17:55	60.7	60.7	60.7	51	42.5	1	5	292	0.00	29.952 
18:00	60.5	60.5	60.5	52	42.8	1	3	315	0.00	29.950 
18:05	60.4	60.4	60.4	53	43.2	1	3	315	0.00	29.954 
18:10	60.1	60.1	60.1	53	42.9	1	3	292	0.00	29.956 
18:15	59.8	59.8	59.8	53	42.6	1	3	292	0.00	29.957 
18:20	59.6	59.6	59.6	53	42.4	1	3	292	0.00	29.961 
18:25	59.3	59.3	59.3	53	42.2	1	5	292	0.00	29.959 
18:30	59.3	59.3	59.3	52	41.7	1	4	315	0.00	29.962 
18:35	59.0	59.0	59.0	55	42.9	0	1	315	0.00	29.964 
18:40	58.6	58.6	58.6	57	43.4	0	3	292	0.00	29.966 
18:45	58.3	58.3	58.3	56	42.7	1	3	292	0.00	29.967 
18:50	58.1	58.1	58.1	56	42.5	1	2	292	0.00	29.968 
18:55	57.8	57.8	57.8	57	42.7	0	3	292	0.00	29.968 
19:00	57.5	57.5	57.5	56	41.9	0	2	292	0.00	29.969 
19:05	57.3	57.3	57.3	57	42.2	0	1	315	0.00	29.966 
19:10	57.0	57.0	57.0	57	41.9	0	2	315	0.00	29.967 
19:15	56.9	56.9	56.9	58	42.3	0	1	315	0.00	29.967 
19:20	56.7	56.7	56.7	58	42.1	0	3	315	0.00	29.972 
19:25	56.5	56.5	56.5	57	41.5	0	1	315	0.00	29.974 
19:30	56.3	56.3	56.3	58	41.7	0	1	315	0.00	29.977 
19:35	56.0	56.0	56.0	59	41.9	0	0	---	0.00	29.979 
19:40	55.7	55.7	55.7	59	41.6	0	1	315	0.00	29.981 
19:45	55.7	55.7	55.7	60	42.0	0	3	315	0.00	29.985 
19:50	55.6	55.6	55.6	60	41.9	0	2	270	0.00	29.985 
19:55	55.4	55.4	55.4	60	41.7	0	2	315	0.00	29.990 
20:00	55.4	55.4	55.4	61	42.2	0	3	315	0.00	29.994 
20:05	55.1	55.1	55.1	62	42.3	0	2	270	0.00	29.992 
20:10	55.0	55.0	55.0	62	42.2	0	1	270	0.00	29.994 
20:15	54.8	54.8	54.8	63	42.4	0	2	292	0.00	29.996 
20:20	54.7	54.7	54.7	63	42.4	0	2	292	0.00	29.998 
20:25	54.7	54.7	54.7	64	42.8	0	2	292	0.00	30.004 
20:30	54.4	54.4	54.4	65	42.9	0	2	315	0.00	30.009 
20:35	54.4	54.4	54.4	65	42.9	1	2	315	0.00	30.012 
20:40	54.4	54.4	54.4	65	42.9	0	1	315	0.00	30.015 
20:45	54.2	54.2	54.2	65	42.7	0	2	315	0.00	30.022 
20:50	54.1	54.1	54.1	66	43.0	0	2	315	0.00	30.024 
20:55	54.1	54.1	54.1	66	43.0	1	3	315	0.00	30.027 
21:00	53.9	53.9	53.9	66	42.8	1	4	270	0.00	30.028 
21:05	53.8	53.8	53.8	67	43.1	0	2	292	0.00	30.029 
21:10	53.6	53.6	53.6	67	42.9	0	3	270	0.00	30.030 
21:15	53.3	53.3	53.3	68	43.0	0	2	270	0.00	30.034 
21:20	53.2	53.2	53.2	69	43.3	0	1	292	0.00	30.038 
21:25	52.8	52.8	52.8	70	43.3	0	1	292	0.00	30.040 
21:30	52.5	52.5	52.5	70	43.0	0	0	---	0.00	30.041 
21:35	52.2	52.2	52.2	71	43.1	0	1	292	0.00	30.043 
21:40	52.0	52.0	52.0	71	42.9	0	1	292	0.00	30.046 
21:45	51.9	51.9	51.9	71	42.8	0	2	292	0.00	30.051 
21:50	51.9	51.9	51.9	71	42.8	0	2	292	0.00	30.050 
21:55	51.9	51.9	51.9	69	42.1	0	2	292	0.00	30.054 
22:00	51.9	51.9	51.9	69	42.1	0	2	292	0.00	30.057 
22:05	51.7	51.7	51.7	68	41.5	0	1	292	0.00	30.057 
22:10	51.7	51.7	51.7	68	41.5	0	1	292	0.00	30.057 
22:15	51.6	51.6	51.6	68	41.4	0	1	292	0.00	30.059 
22:20	51.4	51.4	51.4	69	41.6	0	1	292	0.00	30.062 
22:25	51.3	51.3	51.3	68	41.1	0	4	315	0.00	30.062 
22:30	51.4	51.4	51.4	67	40.8	1	3	292	0.00	30.064 
22:35	51.3	51.3	51.3	67	40.7	0	2	315	0.00	30.066 
22:40	51.1	51.1	51.1	67	40.5	0	2	315	0.00	30.069 
22:45	51.1	51.1	51.1	67	40.5	0	1	315	0.00	30.070 
22:50	51.0	51.0	51.0	67	40.4	0	2	315	0.00	30.072 
22:55	50.8	50.8	50.8	68	40.6	0	2	315	0.00	30.073 
23:00	50.7	50.7	50.7	68	40.5	0	1	315	0.00	30.074 
23:05	50.5	50.5	50.5	68	40.3	0	1	315	0.00	30.080 
23:10	50.4	50.4	50.4	69	40.6	0	1	315	0.00	30.080 
23:15	50.1	50.1	50.1	69	40.3	0	1	315	0.00	30.082 
23:20	49.9	49.9	49.9	70	40.5	0	1	315	0.00	30.083 
23:25	49.8	49.8	49.8	70	40.4	0	0	---	0.00	30.087 
23:30	49.5	49.5	49.5	72	40.9	0	0	---	0.00	30.091 
23:35	49.2	49.2	49.2	72	40.6	0	0	---	0.00	30.094 
23:40	49.1	49.1	49.1	73	40.8	0	1	315	0.00	30.095 
23:45	48.9	48.9	48.9	74	41.0	0	0	---	0.00	30.095 
23:50	48.6	48.6	48.6	75	41.0	0	0	---	0.00	30.095 
23:55	48.5	48.5	48.5	76	41.3	0	1	315	0.00	30.095 

CoCoRaHS
IN-AL-39
A2 Web Hosting
Creative Commons License
GoDaddy
Look for:

loaded 2017-10-17 18:27:59 • last modified 2010-11-18 10:43:29
Privacy PolicyDisclaimer
• wx.awcolley.com is powered by PmWiki v.2002016 •
• all content (unless otherwise noted) © 2017 A W Colley